sensor_id;sensor_type;location;lat;lon;timestamp;temperature;humidity
56512;DHT22;42408;53.238;5.686;2023-04-24T00:01:14;11.00;99.90
56512;DHT22;42408;53.238;5.686;2023-04-24T00:03:40;11.00;99.90
56512;DHT22;42408;53.238;5.686;2023-04-24T00:06:06;10.90;99.90
56512;DHT22;42408;53.238;5.686;2023-04-24T00:08:34;11.00;99.90
56512;DHT22;42408;53.238;5.686;2023-04-24T00:11:00;10.90;99.90
56512;DHT22;42408;53.238;5.686;2023-04-24T00:13:25;11.00;99.90
56512;DHT22;42408;53.238;5.686;2023-04-24T00:15:51;10.90;99.90
56512;DHT22;42408;53.238;5.686;2023-04-24T00:18:17;10.90;99.90
56512;DHT22;42408;53.238;5.686;2023-04-24T00:20:42;10.90;99.90
56512;DHT22;42408;53.238;5.686;2023-04-24T00:23:09;10.90;99.90
56512;DHT22;42408;53.238;5.686;2023-04-24T00:25:34;10.90;99.90
56512;DHT22;42408;53.238;5.686;2023-04-24T00:28:00;10.90;99.90
56512;DHT22;42408;53.238;5.686;2023-04-24T00:30:26;10.90;99.90
56512;DHT22;42408;53.238;5.686;2023-04-24T00:32:52;10.90;99.90
56512;DHT22;42408;53.238;5.686;2023-04-24T00:35:17;10.90;99.90
56512;DHT22;42408;53.238;5.686;2023-04-24T00:37:45;10.90;99.90
56512;DHT22;42408;53.238;5.686;2023-04-24T00:40:11;10.90;99.90
56512;DHT22;42408;53.238;5.686;2023-04-24T00:42:37;10.90;99.90
56512;DHT22;42408;53.238;5.686;2023-04-24T00:45:04;10.90;99.90
56512;DHT22;42408;53.238;5.686;2023-04-24T00:47:30;10.90;99.90
56512;DHT22;42408;53.238;5.686;2023-04-24T00:49:57;10.90;99.90
56512;DHT22;42408;53.238;5.686;2023-04-24T00:52:23;10.90;99.90
56512;DHT22;42408;53.238;5.686;2023-04-24T00:54:49;10.90;99.90
56512;DHT22;42408;53.238;5.686;2023-04-24T00:57:15;10.90;99.90
56512;DHT22;42408;53.238;5.686;2023-04-24T00:59:42;10.90;99.90
56512;DHT22;42408;53.238;5.686;2023-04-24T01:02:08;10.90;99.90
56512;DHT22;42408;53.238;5.686;2023-04-24T01:04:35;10.90;99.90
56512;DHT22;42408;53.238;5.686;2023-04-24T01:07:01;10.90;99.90
56512;DHT22;42408;53.238;5.686;2023-04-24T01:09:27;11.00;99.90
56512;DHT22;42408;53.238;5.686;2023-04-24T01:11:53;11.00;99.90
56512;DHT22;42408;53.238;5.686;2023-04-24T01:14:20;10.90;99.90
56512;DHT22;42408;53.238;5.686;2023-04-24T01:16:45;10.90;99.90
56512;DHT22;42408;53.238;5.686;2023-04-24T01:19:11;10.90;99.90
56512;DHT22;42408;53.238;5.686;2023-04-24T01:21:38;10.90;99.90
56512;DHT22;42408;53.238;5.686;2023-04-24T01:24:05;10.90;99.90
56512;DHT22;42408;53.238;5.686;2023-04-24T01:26:31;10.90;99.90
56512;DHT22;42408;53.238;5.686;2023-04-24T01:28:57;10.90;99.90
56512;DHT22;42408;53.238;5.686;2023-04-24T01:31:23;10.90;99.90
56512;DHT22;42408;53.238;5.686;2023-04-24T01:33:49;10.90;99.90
56512;DHT22;42408;53.238;5.686;2023-04-24T01:36:16;10.90;99.90
56512;DHT22;42408;53.238;5.686;2023-04-24T01:38:42;11.00;99.90
56512;DHT22;42408;53.238;5.686;2023-04-24T01:41:07;11.00;99.90
56512;DHT22;42408;53.238;5.686;2023-04-24T01:43:33;11.00;99.90
56512;DHT22;42408;53.238;5.686;2023-04-24T01:45:59;11.00;99.90
56512;DHT22;42408;53.238;5.686;2023-04-24T01:48:25;10.90;99.90
56512;DHT22;42408;53.238;5.686;2023-04-24T01:50:50;10.90;99.90
56512;DHT22;42408;53.238;5.686;2023-04-24T01:53:16;11.00;99.90
56512;DHT22;42408;53.238;5.686;2023-04-24T01:55:42;11.00;99.90
56512;DHT22;42408;53.238;5.686;2023-04-24T01:58:08;11.00;99.90
56512;DHT22;42408;53.238;5.686;2023-04-24T02:00:33;10.90;99.90
56512;DHT22;42408;53.238;5.686;2023-04-24T02:02:59;10.90;99.90
56512;DHT22;42408;53.238;5.686;2023-04-24T02:05:27;10.90;99.90
56512;DHT22;42408;53.238;5.686;2023-04-24T02:07:53;10.90;99.90
56512;DHT22;42408;53.238;5.686;2023-04-24T02:10:19;10.80;99.90
56512;DHT22;42408;53.238;5.686;2023-04-24T02:12:45;10.80;99.90
56512;DHT22;42408;53.238;5.686;2023-04-24T02:15:11;10.80;99.90
56512;DHT22;42408;53.238;5.686;2023-04-24T02:17:37;10.80;99.90
56512;DHT22;42408;53.238;5.686;2023-04-24T02:20:03;10.80;99.90
56512;DHT22;42408;53.238;5.686;2023-04-24T02:22:29;10.80;99.90
56512;DHT22;42408;53.238;5.686;2023-04-24T02:24:55;10.70;99.90
56512;DHT22;42408;53.238;5.686;2023-04-24T02:27:20;10.70;99.90
56512;DHT22;42408;53.238;5.686;2023-04-24T02:29:46;10.70;99.90
56512;DHT22;42408;53.238;5.686;2023-04-24T02:32:12;10.80;99.90
56512;DHT22;42408;53.238;5.686;2023-04-24T02:34:38;10.70;99.90
56512;DHT22;42408;53.238;5.686;2023-04-24T02:37:03;10.80;99.90
56512;DHT22;42408;53.238;5.686;2023-04-24T02:39:29;10.80;99.90
56512;DHT22;42408;53.238;5.686;2023-04-24T02:41:55;10.80;99.90
56512;DHT22;42408;53.238;5.686;2023-04-24T02:44:20;10.70;99.90
56512;DHT22;42408;53.238;5.686;2023-04-24T02:46:47;10.80;99.90
56512;DHT22;42408;53.238;5.686;2023-04-24T02:49:12;10.70;99.90
56512;DHT22;42408;53.238;5.686;2023-04-24T02:51:38;10.70;99.90
56512;DHT22;42408;53.238;5.686;2023-04-24T02:54:07;10.70;99.90
56512;DHT22;42408;53.238;5.686;2023-04-24T02:56:34;10.70;99.90
56512;DHT22;42408;53.238;5.686;2023-04-24T02:59:00;10.70;99.90
56512;DHT22;42408;53.238;5.686;2023-04-24T03:01:25;10.70;99.90
56512;DHT22;42408;53.238;5.686;2023-04-24T03:03:51;10.80;99.90
56512;DHT22;42408;53.238;5.686;2023-04-24T03:06:16;10.70;99.90
56512;DHT22;42408;53.238;5.686;2023-04-24T03:08:42;10.70;99.90
56512;DHT22;42408;53.238;5.686;2023-04-24T03:11:08;10.70;99.90
56512;DHT22;42408;53.238;5.686;2023-04-24T03:13:33;10.70;99.90
56512;DHT22;42408;53.238;5.686;2023-04-24T03:15:59;10.70;99.90
56512;DHT22;42408;53.238;5.686;2023-04-24T03:18:24;10.70;99.90
56512;DHT22;42408;53.238;5.686;2023-04-24T03:20:50;10.70;99.90
56512;DHT22;42408;53.238;5.686;2023-04-24T03:23:16;10.70;99.90
56512;DHT22;42408;53.238;5.686;2023-04-24T03:25:42;10.70;99.90
56512;DHT22;42408;53.238;5.686;2023-04-24T03:28:08;10.70;99.90
56512;DHT22;42408;53.238;5.686;2023-04-24T03:30:34;10.70;99.90
56512;DHT22;42408;53.238;5.686;2023-04-24T03:33:00;10.70;99.90
56512;DHT22;42408;53.238;5.686;2023-04-24T03:35:26;10.70;99.90
56512;DHT22;42408;53.238;5.686;2023-04-24T03:37:52;10.70;99.90
56512;DHT22;42408;53.238;5.686;2023-04-24T03:40:17;10.70;99.90
56512;DHT22;42408;53.238;5.686;2023-04-24T03:42:43;10.70;99.90
56512;DHT22;42408;53.238;5.686;2023-04-24T03:45:09;10.70;99.90
56512;DHT22;42408;53.238;5.686;2023-04-24T03:47:35;10.60;99.90
56512;DHT22;42408;53.238;5.686;2023-04-24T03:50:01;10.60;99.90
56512;DHT22;42408;53.238;5.686;2023-04-24T03:52:26;10.60;99.90
56512;DHT22;42408;53.238;5.686;2023-04-24T03:54:52;10.60;99.90
56512;DHT22;42408;53.238;5.686;2023-04-24T03:57:17;10.60;99.90
56512;DHT22;42408;53.238;5.686;2023-04-24T03:59:43;10.60;99.90
56512;DHT22;42408;53.238;5.686;2023-04-24T04:02:09;10.60;99.90
56512;DHT22;42408;53.238;5.686;2023-04-24T04:04:34;10.60;99.90
56512;DHT22;42408;53.238;5.686;2023-04-24T04:07:00;10.50;99.90
56512;DHT22;42408;53.238;5.686;2023-04-24T04:09:28;10.50;99.90
56512;DHT22;42408;53.238;5.686;2023-04-24T04:11:54;10.50;99.90
56512;DHT22;42408;53.238;5.686;2023-04-24T04:14:21;10.50;99.90
56512;DHT22;42408;53.238;5.686;2023-04-24T04:16:47;10.40;99.90
56512;DHT22;42408;53.238;5.686;2023-04-24T04:19:12;10.30;99.90
56512;DHT22;42408;53.238;5.686;2023-04-24T04:21:38;10.30;99.90
56512;DHT22;42408;53.238;5.686;2023-04-24T04:24:04;10.30;99.90
56512;DHT22;42408;53.238;5.686;2023-04-24T04:26:30;10.30;99.90
56512;DHT22;42408;53.238;5.686;2023-04-24T04:28:58;10.30;99.90
56512;DHT22;42408;53.238;5.686;2023-04-24T04:31:24;10.20;99.90
56512;DHT22;42408;53.238;5.686;2023-04-24T04:33:50;10.20;99.90
56512;DHT22;42408;53.238;5.686;2023-04-24T04:36:15;10.30;99.90
56512;DHT22;42408;53.238;5.686;2023-04-24T04:38:42;10.20;99.90
56512;DHT22;42408;53.238;5.686;2023-04-24T04:41:10;10.20;99.90
56512;DHT22;42408;53.238;5.686;2023-04-24T04:43:36;10.20;99.90
56512;DHT22;42408;53.238;5.686;2023-04-24T04:46:03;10.20;99.90
56512;DHT22;42408;53.238;5.686;2023-04-24T04:48:29;10.20;99.90
56512;DHT22;42408;53.238;5.686;2023-04-24T04:50:57;10.20;99.90
56512;DHT22;42408;53.238;5.686;2023-04-24T04:53:22;10.20;99.90
56512;DHT22;42408;53.238;5.686;2023-04-24T04:55:48;10.20;99.90
56512;DHT22;42408;53.238;5.686;2023-04-24T04:58:14;10.20;99.90
56512;DHT22;42408;53.238;5.686;2023-04-24T05:00:39;10.20;99.90
56512;DHT22;42408;53.238;5.686;2023-04-24T05:03:05;10.10;99.90
56512;DHT22;42408;53.238;5.686;2023-04-24T05:05:31;10.20;99.90
56512;DHT22;42408;53.238;5.686;2023-04-24T05:07:57;10.10;99.90
56512;DHT22;42408;53.238;5.686;2023-04-24T05:10:22;10.10;99.90
56512;DHT22;42408;53.238;5.686;2023-04-24T05:12:48;10.20;99.90
56512;DHT22;42408;53.238;5.686;2023-04-24T05:15:14;10.20;99.90
56512;DHT22;42408;53.238;5.686;2023-04-24T05:17:40;10.10;99.90
56512;DHT22;42408;53.238;5.686;2023-04-24T05:20:06;10.10;99.90
56512;DHT22;42408;53.238;5.686;2023-04-24T05:22:32;10.10;99.90
56512;DHT22;42408;53.238;5.686;2023-04-24T05:24:58;10.10;99.90
56512;DHT22;42408;53.238;5.686;2023-04-24T05:27:24;10.10;99.90
56512;DHT22;42408;53.238;5.686;2023-04-24T05:29:50;10.00;99.90
56512;DHT22;42408;53.238;5.686;2023-04-24T05:32:16;10.00;99.90
56512;DHT22;42408;53.238;5.686;2023-04-24T05:34:42;10.00;99.90
56512;DHT22;42408;53.238;5.686;2023-04-24T05:37:07;10.00;99.90
56512;DHT22;42408;53.238;5.686;2023-04-24T05:39:35;10.00;99.90
56512;DHT22;42408;53.238;5.686;2023-04-24T05:42:01;10.10;99.90
56512;DHT22;42408;53.238;5.686;2023-04-24T05:44:27;10.00;99.90
56512;DHT22;42408;53.238;5.686;2023-04-24T05:46:53;10.00;99.90
56512;DHT22;42408;53.238;5.686;2023-04-24T05:49:20;10.00;99.90
56512;DHT22;42408;53.238;5.686;2023-04-24T05:51:46;10.00;99.90
56512;DHT22;42408;53.238;5.686;2023-04-24T05:54:11;9.90;99.90
56512;DHT22;42408;53.238;5.686;2023-04-24T05:56:38;9.90;99.90
56512;DHT22;42408;53.238;5.686;2023-04-24T05:59:04;9.90;99.90
56512;DHT22;42408;53.238;5.686;2023-04-24T06:01:29;9.80;99.90
56512;DHT22;42408;53.238;5.686;2023-04-24T06:03:56;9.80;99.90
56512;DHT22;42408;53.238;5.686;2023-04-24T06:06:23;9.90;99.90
56512;DHT22;42408;53.238;5.686;2023-04-24T06:08:49;9.80;99.90
56512;DHT22;42408;53.238;5.686;2023-04-24T06:11:14;9.80;99.90
56512;DHT22;42408;53.238;5.686;2023-04-24T06:13:40;9.80;99.90
56512;DHT22;42408;53.238;5.686;2023-04-24T06:16:06;9.80;99.90
56512;DHT22;42408;53.238;5.686;2023-04-24T06:18:31;9.80;99.90
56512;DHT22;42408;53.238;5.686;2023-04-24T06:20:57;9.80;99.90
56512;DHT22;42408;53.238;5.686;2023-04-24T06:23:23;9.70;99.90
56512;DHT22;42408;53.238;5.686;2023-04-24T06:25:48;9.70;99.90
56512;DHT22;42408;53.238;5.686;2023-04-24T06:28:15;9.70;99.90
56512;DHT22;42408;53.238;5.686;2023-04-24T06:30:41;9.70;99.90
56512;DHT22;42408;53.238;5.686;2023-04-24T06:33:07;9.60;99.90
56512;DHT22;42408;53.238;5.686;2023-04-24T06:35:32;9.60;99.90
56512;DHT22;42408;53.238;5.686;2023-04-24T06:37:58;9.60;99.90
56512;DHT22;42408;53.238;5.686;2023-04-24T06:40:24;9.60;99.90
56512;DHT22;42408;53.238;5.686;2023-04-24T06:42:49;9.50;99.90
56512;DHT22;42408;53.238;5.686;2023-04-24T06:45:15;9.60;99.90
56512;DHT22;42408;53.238;5.686;2023-04-24T06:47:41;9.60;99.90
56512;DHT22;42408;53.238;5.686;2023-04-24T06:50:07;9.60;99.90
56512;DHT22;42408;53.238;5.686;2023-04-24T06:52:33;9.60;99.90
56512;DHT22;42408;53.238;5.686;2023-04-24T06:55:02;9.60;99.90
56512;DHT22;42408;53.238;5.686;2023-04-24T06:57:28;9.50;99.90
56512;DHT22;42408;53.238;5.686;2023-04-24T06:59:54;9.60;99.90
56512;DHT22;42408;53.238;5.686;2023-04-24T07:02:20;9.50;99.90
56512;DHT22;42408;53.238;5.686;2023-04-24T07:04:45;9.50;99.90
56512;DHT22;42408;53.238;5.686;2023-04-24T07:07:12;9.50;99.90
56512;DHT22;42408;53.238;5.686;2023-04-24T07:09:40;9.50;99.90
56512;DHT22;42408;53.238;5.686;2023-04-24T07:12:11;9.50;99.90
56512;DHT22;42408;53.238;5.686;2023-04-24T07:14:39;9.50;99.90
56512;DHT22;42408;53.238;5.686;2023-04-24T07:17:05;9.50;99.90
56512;DHT22;42408;53.238;5.686;2023-04-24T07:19:32;9.50;99.90
56512;DHT22;42408;53.238;5.686;2023-04-24T07:21:58;9.50;99.90
56512;DHT22;42408;53.238;5.686;2023-04-24T07:24:27;9.50;99.90
56512;DHT22;42408;53.238;5.686;2023-04-24T07:26:53;9.50;99.90
56512;DHT22;42408;53.238;5.686;2023-04-24T07:29:19;9.50;99.90
56512;DHT22;42408;53.238;5.686;2023-04-24T07:31:45;9.50;99.90
56512;DHT22;42408;53.238;5.686;2023-04-24T07:34:11;9.50;99.90
56512;DHT22;42408;53.238;5.686;2023-04-24T07:36:36;9.50;99.90
56512;DHT22;42408;53.238;5.686;2023-04-24T07:39:04;9.50;99.90
56512;DHT22;42408;53.238;5.686;2023-04-24T07:41:30;9.60;99.90
56512;DHT22;42408;53.238;5.686;2023-04-24T07:43:56;9.60;99.90
56512;DHT22;42408;53.238;5.686;2023-04-24T07:46:21;9.60;99.90
56512;DHT22;42408;53.238;5.686;2023-04-24T07:48:48;9.70;99.90
56512;DHT22;42408;53.238;5.686;2023-04-24T07:51:14;9.70;99.90
56512;DHT22;42408;53.238;5.686;2023-04-24T07:53:40;9.80;99.90
56512;DHT22;42408;53.238;5.686;2023-04-24T07:56:06;9.80;99.90
56512;DHT22;42408;53.238;5.686;2023-04-24T07:58:32;9.80;99.90
56512;DHT22;42408;53.238;5.686;2023-04-24T08:00:58;9.90;99.90
56512;DHT22;42408;53.238;5.686;2023-04-24T08:03:26;9.90;99.90
56512;DHT22;42408;53.238;5.686;2023-04-24T08:05:52;9.90;99.90
56512;DHT22;42408;53.238;5.686;2023-04-24T08:08:21;10.00;99.90
56512;DHT22;42408;53.238;5.686;2023-04-24T08:10:47;10.00;99.90
56512;DHT22;42408;53.238;5.686;2023-04-24T08:13:12;10.00;99.90
56512;DHT22;42408;53.238;5.686;2023-04-24T08:15:38;9.90;99.90
56512;DHT22;42408;53.238;5.686;2023-04-24T08:18:04;9.90;99.90
56512;DHT22;42408;53.238;5.686;2023-04-24T08:20:29;10.00;99.90
56512;DHT22;42408;53.238;5.686;2023-04-24T08:22:55;10.00;99.90
56512;DHT22;42408;53.238;5.686;2023-04-24T08:25:21;10.00;99.90
56512;DHT22;42408;53.238;5.686;2023-04-24T08:27:48;10.10;99.90
56512;DHT22;42408;53.238;5.686;2023-04-24T08:30:14;10.10;99.90
56512;DHT22;42408;53.238;5.686;2023-04-24T08:32:40;10.10;99.90
56512;DHT22;42408;53.238;5.686;2023-04-24T08:35:06;10.20;99.90
56512;DHT22;42408;53.238;5.686;2023-04-24T08:37:34;10.30;99.90
56512;DHT22;42408;53.238;5.686;2023-04-24T08:39:59;10.40;99.90
56512;DHT22;42408;53.238;5.686;2023-04-24T08:42:28;10.50;99.90
56512;DHT22;42408;53.238;5.686;2023-04-24T08:44:54;10.50;99.90
56512;DHT22;42408;53.238;5.686;2023-04-24T08:47:20;10.70;99.90
56512;DHT22;42408;53.238;5.686;2023-04-24T08:49:48;10.80;99.90
56512;DHT22;42408;53.238;5.686;2023-04-24T08:52:13;10.90;99.90
56512;DHT22;42408;53.238;5.686;2023-04-24T08:54:41;10.90;99.90
56512;DHT22;42408;53.238;5.686;2023-04-24T08:57:08;11.00;99.90
56512;DHT22;42408;53.238;5.686;2023-04-24T08:59:38;11.00;99.90
56512;DHT22;42408;53.238;5.686;2023-04-24T09:02:04;11.20;99.90
56512;DHT22;42408;53.238;5.686;2023-04-24T09:04:30;11.30;99.90
56512;DHT22;42408;53.238;5.686;2023-04-24T09:06:57;11.40;99.90
56512;DHT22;42408;53.238;5.686;2023-04-24T09:09:24;11.40;99.90
56512;DHT22;42408;53.238;5.686;2023-04-24T09:11:51;11.50;99.90
56512;DHT22;42408;53.238;5.686;2023-04-24T09:14:21;11.60;99.90
56512;DHT22;42408;53.238;5.686;2023-04-24T09:16:47;11.60;99.90
56512;DHT22;42408;53.238;5.686;2023-04-24T09:19:13;11.60;99.90
56512;DHT22;42408;53.238;5.686;2023-04-24T09:21:39;11.60;99.90
56512;DHT22;42408;53.238;5.686;2023-04-24T09:24:15;11.70;99.90
56512;DHT22;42408;53.238;5.686;2023-04-24T09:26:44;11.70;99.90
56512;DHT22;42408;53.238;5.686;2023-04-24T09:29:13;11.70;99.90
56512;DHT22;42408;53.238;5.686;2023-04-24T09:31:39;11.80;99.90
56512;DHT22;42408;53.238;5.686;2023-04-24T09:34:05;11.80;99.90
56512;DHT22;42408;53.238;5.686;2023-04-24T09:36:33;11.80;99.90
56512;DHT22;42408;53.238;5.686;2023-04-24T09:39:00;11.80;99.90
56512;DHT22;42408;53.238;5.686;2023-04-24T09:41:27;11.80;99.90
56512;DHT22;42408;53.238;5.686;2023-04-24T09:43:53;11.80;99.90
56512;DHT22;42408;53.238;5.686;2023-04-24T09:46:19;11.80;99.90
56512;DHT22;42408;53.238;5.686;2023-04-24T09:48:46;11.80;99.90
56512;DHT22;42408;53.238;5.686;2023-04-24T09:51:12;11.80;99.90
56512;DHT22;42408;53.238;5.686;2023-04-24T09:53:38;11.80;99.90
56512;DHT22;42408;53.238;5.686;2023-04-24T09:56:08;11.80;99.90
56512;DHT22;42408;53.238;5.686;2023-04-24T09:58:35;11.70;99.90
56512;DHT22;42408;53.238;5.686;2023-04-24T10:01:02;11.80;99.90
56512;DHT22;42408;53.238;5.686;2023-04-24T10:03:30;11.70;99.90
56512;DHT22;42408;53.238;5.686;2023-04-24T10:06:00;11.70;99.90
56512;DHT22;42408;53.238;5.686;2023-04-24T10:08:26;11.80;99.90
56512;DHT22;42408;53.238;5.686;2023-04-24T10:10:58;11.70;99.90
56512;DHT22;42408;53.238;5.686;2023-04-24T10:13:25;11.80;99.90
56512;DHT22;42408;53.238;5.686;2023-04-24T10:15:51;11.80;99.90
56512;DHT22;42408;53.238;5.686;2023-04-24T10:18:17;11.90;99.90
56512;DHT22;42408;53.238;5.686;2023-04-24T10:20:46;12.00;99.90
56512;DHT22;42408;53.238;5.686;2023-04-24T10:23:12;12.10;99.90
56512;DHT22;42408;53.238;5.686;2023-04-24T10:25:38;12.10;99.90
56512;DHT22;42408;53.238;5.686;2023-04-24T10:28:04;12.00;99.90
56512;DHT22;42408;53.238;5.686;2023-04-24T10:30:34;12.10;99.90
56512;DHT22;42408;53.238;5.686;2023-04-24T10:33:02;12.00;99.90
56512;DHT22;42408;53.238;5.686;2023-04-24T10:35:31;12.10;99.90
56512;DHT22;42408;53.238;5.686;2023-04-24T10:38:02;12.10;99.90
56512;DHT22;42408;53.238;5.686;2023-04-24T10:40:33;12.00;99.90
56512;DHT22;42408;53.238;5.686;2023-04-24T10:43:07;12.00;99.90
56512;DHT22;42408;53.238;5.686;2023-04-24T10:45:36;11.90;99.90
56512;DHT22;42408;53.238;5.686;2023-04-24T10:48:04;11.70;99.90
56512;DHT22;42408;53.238;5.686;2023-04-24T10:50:53;11.50;99.90
56512;DHT22;42408;53.238;5.686;2023-04-24T10:53:21;11.40;99.90
56512;DHT22;42408;53.238;5.686;2023-04-24T10:55:52;11.40;99.90
56512;DHT22;42408;53.238;5.686;2023-04-24T10:58:23;11.20;99.90
56512;DHT22;42408;53.238;5.686;2023-04-24T11:00:57;11.20;99.90
56512;DHT22;42408;53.238;5.686;2023-04-24T11:03:33;11.20;99.90
56512;DHT22;42408;53.238;5.686;2023-04-24T11:06:07;11.10;99.90
56512;DHT22;42408;53.238;5.686;2023-04-24T11:08:44;11.20;99.90
56512;DHT22;42408;53.238;5.686;2023-04-24T11:11:17;11.30;99.90
56512;DHT22;42408;53.238;5.686;2023-04-24T11:16:35;11.50;99.90
56512;DHT22;42408;53.238;5.686;2023-04-24T11:19:09;11.60;99.90
56512;DHT22;42408;53.238;5.686;2023-04-24T11:21:38;11.70;99.90
56512;DHT22;42408;53.238;5.686;2023-04-24T11:26:57;11.80;99.90
56512;DHT22;42408;53.238;5.686;2023-04-24T11:29:37;11.80;99.90
56512;DHT22;42408;53.238;5.686;2023-04-24T11:32:25;11.70;99.90
56512;DHT22;42408;53.238;5.686;2023-04-24T11:35:05;11.70;99.90
56512;DHT22;42408;53.238;5.686;2023-04-24T11:37:40;11.60;99.90
56512;DHT22;42408;53.238;5.686;2023-04-24T11:40:08;11.70;99.90
56512;DHT22;42408;53.238;5.686;2023-04-24T11:42:39;11.80;99.90
56512;DHT22;42408;53.238;5.686;2023-04-24T11:47:37;12.00;99.90
56512;DHT22;42408;53.238;5.686;2023-04-24T11:50:04;12.20;99.90
56512;DHT22;42408;53.238;5.686;2023-04-24T11:52:31;12.50;99.90
56512;DHT22;42408;53.238;5.686;2023-04-24T11:54:59;12.80;99.90
56512;DHT22;42408;53.238;5.686;2023-04-24T11:57:25;12.90;99.90
56512;DHT22;42408;53.238;5.686;2023-04-24T11:59:59;13.00;99.90
56512;DHT22;42408;53.238;5.686;2023-04-24T12:02:26;13.10;99.90
56512;DHT22;42408;53.238;5.686;2023-04-24T12:04:53;13.10;99.90
56512;DHT22;42408;53.238;5.686;2023-04-24T12:07:19;13.10;99.90
56512;DHT22;42408;53.238;5.686;2023-04-24T12:09:58;13.20;99.90
56512;DHT22;42408;53.238;5.686;2023-04-24T12:12:28;13.30;99.90
56512;DHT22;42408;53.238;5.686;2023-04-24T12:14:57;13.40;99.90
56512;DHT22;42408;53.238;5.686;2023-04-24T12:17:31;13.40;99.90
56512;DHT22;42408;53.238;5.686;2023-04-24T12:20:03;13.40;99.90
56512;DHT22;42408;53.238;5.686;2023-04-24T12:22:46;13.50;99.90
56512;DHT22;42408;53.238;5.686;2023-04-24T12:25:13;13.40;99.90
56512;DHT22;42408;53.238;5.686;2023-04-24T12:27:38;13.30;99.90
56512;DHT22;42408;53.238;5.686;2023-04-24T12:30:05;13.40;99.90
56512;DHT22;42408;53.238;5.686;2023-04-24T12:32:35;13.60;99.90
56512;DHT22;42408;53.238;5.686;2023-04-24T12:35:00;13.60;99.90
56512;DHT22;42408;53.238;5.686;2023-04-24T12:37:32;13.60;99.90
56512;DHT22;42408;53.238;5.686;2023-04-24T12:40:04;13.70;99.90
56512;DHT22;42408;53.238;5.686;2023-04-24T12:42:31;13.60;99.90
56512;DHT22;42408;53.238;5.686;2023-04-24T12:45:03;13.60;99.90
56512;DHT22;42408;53.238;5.686;2023-04-24T12:47:30;13.60;99.90
56512;DHT22;42408;53.238;5.686;2023-04-24T12:49:56;13.50;99.90
56512;DHT22;42408;53.238;5.686;2023-04-24T12:52:23;13.40;99.90
56512;DHT22;42408;53.238;5.686;2023-04-24T12:54:56;13.30;99.90
56512;DHT22;42408;53.238;5.686;2023-04-24T12:57:22;13.10;99.90
56512;DHT22;42408;53.238;5.686;2023-04-24T12:59:48;12.90;99.90
56512;DHT22;42408;53.238;5.686;2023-04-24T13:02:14;12.80;99.90
56512;DHT22;42408;53.238;5.686;2023-04-24T13:04:46;12.60;99.90
56512;DHT22;42408;53.238;5.686;2023-04-24T13:07:12;12.40;99.90
56512;DHT22;42408;53.238;5.686;2023-04-24T13:09:40;12.20;99.90
56512;DHT22;42408;53.238;5.686;2023-04-24T13:12:06;12.10;99.90
56512;DHT22;42408;53.238;5.686;2023-04-24T13:14:32;12.00;99.90
56512;DHT22;42408;53.238;5.686;2023-04-24T13:16:57;11.90;99.90
56512;DHT22;42408;53.238;5.686;2023-04-24T13:19:26;11.90;99.90
56512;DHT22;42408;53.238;5.686;2023-04-24T13:21:55;11.80;99.90
56512;DHT22;42408;53.238;5.686;2023-04-24T13:24:24;11.70;99.90
56512;DHT22;42408;53.238;5.686;2023-04-24T13:26:53;11.60;99.90
56512;DHT22;42408;53.238;5.686;2023-04-24T13:29:19;11.60;99.90
56512;DHT22;42408;53.238;5.686;2023-04-24T13:31:46;11.60;99.90
56512;DHT22;42408;53.238;5.686;2023-04-24T13:34:12;11.60;99.90
56512;DHT22;42408;53.238;5.686;2023-04-24T13:36:38;11.60;99.90
56512;DHT22;42408;53.238;5.686;2023-04-24T13:39:05;11.60;99.90
56512;DHT22;42408;53.238;5.686;2023-04-24T13:41:32;11.60;99.90
56512;DHT22;42408;53.238;5.686;2023-04-24T13:43:58;11.60;99.90
56512;DHT22;42408;53.238;5.686;2023-04-24T13:46:23;11.60;99.90
56512;DHT22;42408;53.238;5.686;2023-04-24T13:48:49;11.60;99.90
56512;DHT22;42408;53.238;5.686;2023-04-24T13:51:15;11.60;99.90
56512;DHT22;42408;53.238;5.686;2023-04-24T13:53:40;11.60;99.90
56512;DHT22;42408;53.238;5.686;2023-04-24T13:56:06;11.60;99.90
56512;DHT22;42408;53.238;5.686;2023-04-24T13:58:32;11.60;99.90
56512;DHT22;42408;53.238;5.686;2023-04-24T14:00:58;11.50;99.90
56512;DHT22;42408;53.238;5.686;2023-04-24T14:03:23;11.50;99.90
56512;DHT22;42408;53.238;5.686;2023-04-24T14:05:49;11.50;99.90
56512;DHT22;42408;53.238;5.686;2023-04-24T14:08:15;11.50;99.90
56512;DHT22;42408;53.238;5.686;2023-04-24T14:10:40;11.40;99.90
56512;DHT22;42408;53.238;5.686;2023-04-24T14:13:06;11.40;99.90
56512;DHT22;42408;53.238;5.686;2023-04-24T14:15:32;11.40;99.90
56512;DHT22;42408;53.238;5.686;2023-04-24T14:17:57;11.40;99.90
56512;DHT22;42408;53.238;5.686;2023-04-24T14:20:23;11.30;99.90
56512;DHT22;42408;53.238;5.686;2023-04-24T14:22:49;11.30;99.90
56512;DHT22;42408;53.238;5.686;2023-04-24T14:25:14;11.30;99.90
56512;DHT22;42408;53.238;5.686;2023-04-24T14:27:40;11.30;99.90
56512;DHT22;42408;53.238;5.686;2023-04-24T14:30:07;11.20;99.90
56512;DHT22;42408;53.238;5.686;2023-04-24T14:32:33;11.20;99.90
56512;DHT22;42408;53.238;5.686;2023-04-24T14:34:58;11.20;99.90
56512;DHT22;42408;53.238;5.686;2023-04-24T14:37:24;11.20;99.90
56512;DHT22;42408;53.238;5.686;2023-04-24T14:39:50;11.10;99.90
56512;DHT22;42408;53.238;5.686;2023-04-24T14:42:15;11.10;99.90
56512;DHT22;42408;53.238;5.686;2023-04-24T14:44:42;11.10;99.90
56512;DHT22;42408;53.238;5.686;2023-04-24T14:47:08;11.00;99.90
56512;DHT22;42408;53.238;5.686;2023-04-24T14:49:33;11.00;99.90
56512;DHT22;42408;53.238;5.686;2023-04-24T14:51:59;11.00;99.90
56512;DHT22;42408;53.238;5.686;2023-04-24T14:54:25;11.00;99.90
56512;DHT22;42408;53.238;5.686;2023-04-24T14:56:51;11.00;99.90
56512;DHT22;42408;53.238;5.686;2023-04-24T14:59:16;11.00;99.90
56512;DHT22;42408;53.238;5.686;2023-04-24T15:01:42;11.00;99.90
56512;DHT22;42408;53.238;5.686;2023-04-24T15:04:08;11.00;99.90
56512;DHT22;42408;53.238;5.686;2023-04-24T15:06:33;10.90;99.90
56512;DHT22;42408;53.238;5.686;2023-04-24T15:08:59;10.80;99.90
56512;DHT22;42408;53.238;5.686;2023-04-24T15:11:25;10.80;99.90
56512;DHT22;42408;53.238;5.686;2023-04-24T15:13:51;10.70;99.90
56512;DHT22;42408;53.238;5.686;2023-04-24T15:16:17;10.70;99.90
56512;DHT22;42408;53.238;5.686;2023-04-24T15:18:42;10.70;99.90
56512;DHT22;42408;53.238;5.686;2023-04-24T15:21:08;10.60;99.90
56512;DHT22;42408;53.238;5.686;2023-04-24T15:23:34;10.70;99.90
56512;DHT22;42408;53.238;5.686;2023-04-24T15:26:00;10.60;99.90
56512;DHT22;42408;53.238;5.686;2023-04-24T15:28:26;10.50;99.90
56512;DHT22;42408;53.238;5.686;2023-04-24T15:30:52;10.40;99.90
56512;DHT22;42408;53.238;5.686;2023-04-24T15:33:18;10.40;99.90
56512;DHT22;42408;53.238;5.686;2023-04-24T15:35:43;10.40;99.90
56512;DHT22;42408;53.238;5.686;2023-04-24T15:38:09;10.40;99.90